Latest Weather Observations for Cabramurra

IDN60901

Issued at 8:31 pm EST Saturday 24 June 2017 (issued every 10 minutes, with the page automatically refreshed every 10 minutes)

About weather observations | Map of Canberra area stations | Latest observations for Canberra area | Other Formats
Station Details ID: 072161 Name: CABRAMURRA SMHEA AWS Lat: -35.94 Lon: 148.38 Height: 1482.4 m
Data from the previous 72 hours. | See also: Recent months at Cabramurra
Date/Time
EST
Temp
°C
App
Temp
°C
Dew
Point
°C
Rel
Hum
%
Delta-T
°C
Wind Press
QNH
hPa
Press
MSL
hPa
Rain since
9am
mm
Dir  Spd
km/h
Gust
km/h
Spd
kts
Gust
kts
24/08:30pm -0.2 -5.5 -0.3 99 0.0 W 17 28 9 15 - - 0.0
24/08:00pm -0.1 -5.3 -0.2 99 0.0 W 17 22 9 12 - - 0.0
24/07:30pm -0.1 -5.3 -0.2 99 0.0 WNW 17 24 9 13 - - 0.0
24/07:00pm -0.1 -5.3 -0.2 99 0.0 WNW 17 26 9 14 - - 0.0
24/06:30pm 0.0 -5.3 -0.4 97 0.2 W 17 24 9 13 - - 0.0
24/06:00pm 0.0 -4.9 -0.3 98 0.1 WNW 15 20 8 11 - - 0.0
24/05:30pm -0.1 -4.3 -0.7 96 0.2 W 11 19 6 10 - - 0.0
24/05:00pm 0.4 -4.5 -0.6 93 0.4 WNW 15 28 8 15 - - 0.0
24/04:30pm 0.6 -4.3 -0.5 92 0.4 WNW 15 26 8 14 - - 0.0
24/04:00pm 1.0 -3.5 -0.5 90 0.6 W 13 20 7 11 - - 0.0
24/03:30pm 1.1 -3.7 0.4 95 0.3 WNW 15 22 8 12 - - 0.0
24/03:00pm 1.2 -3.6 0.3 94 0.4 W 15 22 8 12 - - 0.0
24/02:30pm 1.2 -4.6 -0.4 89 0.6 W 20 28 11 15 - - 0.0
24/02:00pm 1.3 -4.8 0.1 92 0.5 W 22 35 12 19 - - 0.0
24/01:30pm 1.5 -5.3 0.8 95 0.3 W 26 41 14 22 - - 0.0
24/01:00pm 2.2 -3.6 2.1 99 0.0 W 22 35 12 19 - - 0.0
24/12:30pm 1.3 -5.8 1.2 99 0.0 W 28 44 15 24 - - 0.0
24/12:00pm 1.2 -6.7 1.1 99 0.0 W 32 50 17 27 - - 0.0
24/11:58am 1.3 -6.6 1.2 99 0.0 W 32 50 17 27 - - 0.0
24/11:30am 1.4 -4.9 1.3 99 0.0 W 24 37 13 20 - - 0.0
24/11:00am 1.3 -5.1 1.2 99 0.0 W 24 39 13 21 - - 0.0
24/10:30am 1.2 -4.8 1.1 99 0.0 W 22 32 12 17 - - 0.0
24/10:00am 1.0 -4.6 0.9 99 0.0 W 20 39 11 21 - - 0.0
24/09:30am 1.0 -5.0 0.9 99 0.0 W 22 37 12 20 - - 0.0
24/09:00am 0.8 -4.9 0.7 99 0.0 W 20 35 11 19 - - 0.0
24/08:30am 0.7 -6.5 0.6 99 0.0 WSW 28 39 15 21 - - 0.0
24/08:00am 0.7 -5.8 0.6 99 0.0 WSW 24 41 13 22 - - 0.0
24/07:30am 0.7 -6.5 0.6 99 0.0 W 28 52 15 28 - - 0.0
24/07:09am 0.8 -6.4 0.7 99 0.0 W 28 50 15 27 - - 0.0
24/07:00am 0.7 -6.9 0.6 99 0.0 W 30 46 16 25 - - 0.0
24/06:30am 0.7 -6.5 0.6 99 0.0 W 28 46 15 25 - - 0.0
24/06:00am 0.9 -7.0 0.8 99 0.0 W 32 50 17 27 - - 0.0
24/05:30am 0.9 -7.0 0.8 99 0.0 W 32 50 17 27 - - 0.0
24/05:00am 1.0 -7.9 0.9 99 0.0 W 37 57 20 31 - - 0.0
24/04:30am 1.0 -7.5 0.9 99 0.0 W 35 57 19 31 - - 0.0
24/04:23am 1.0 -6.9 0.9 99 0.0 W 32 50 17 27 - - 0.0
24/04:00am 1.1 -7.4 1.0 99 0.0 W 35 52 19 28 - - 0.0
24/03:40am 1.1 -6.8 1.0 99 0.0 W 32 50 17 27 - - 0.0
24/03:30am 1.1 -6.8 1.0 99 0.0 W 32 48 17 26 - - 0.0
24/03:17am 1.1 -7.4 1.0 99 0.0 W 35 56 19 30 - - 0.0
24/03:00am 1.1 -7.4 1.0 99 0.0 W 35 50 19 27 - - 0.0
24/02:30am 1.1 -7.0 1.0 99 0.0 W 33 54 18 29 - - 0.0
24/02:04am 1.2 -6.7 1.1 99 0.0 W 32 50 17 27 - - 0.0
24/02:00am 1.2 -6.7 1.1 99 0.0 W 32 48 17 26 - - 0.0
24/01:30am 1.2 -7.6 1.1 99 0.0 W 37 57 20 31 - - 0.0
24/01:06am 1.3 -6.8 1.2 99 0.0 W 33 52 18 28 - - 0.0
24/01:00am 1.2 -7.3 1.1 99 0.0 W 35 48 19 26 - - 0.0
24/12:34am 1.3 -7.2 1.2 99 0.0 W 35 54 19 29 - - 0.0
24/12:30am 1.3 -6.8 1.2 99 0.0 W 33 48 18 26 - - 0.0
24/12:00am 1.2 -6.9 1.1 99 0.0 W 33 46 18 25 - - 0.0
 
Date/Time
EST
Temp
°C
App
Temp
°C
Dew
Point
°C
Rel
Hum
%
Delta-T
°C
Wind Press
QNH
hPa
Press
MSL
hPa
Rain since
9am
mm
Dir  Spd
km/h
Gust
km/h
Spd
kts
Gust
kts
23/11:50pm 1.3 -7.2 1.2 99 0.0 W 35 54 19 29 - - 0.0
23/11:30pm 1.3 -7.2 1.2 99 0.0 W 35 52 19 28 - - 0.0
23/11:06pm 1.1 -6.8 1.0 99 0.0 W 32 52 17 28 - - 0.0
23/11:00pm 1.0 -6.5 0.9 99 0.0 W 30 41 16 22 - - 0.0
23/10:32pm 0.8 -6.8 0.7 99 0.0 W 30 48 16 26 - - 0.0
23/10:30pm 0.8 -7.2 0.7 99 0.0 W 32 48 17 26 - - 0.0
23/10:05pm 0.9 -7.0 0.8 99 0.0 W 32 50 17 27 - - 0.0
23/10:00pm 0.9 -7.2 0.8 99 0.0 W 33 50 18 27 - - 0.0
23/09:30pm 0.8 -6.4 0.7 99 0.0 W 28 46 15 25 - - 0.0
23/09:00pm 0.8 -6.8 0.7 99 0.0 W 30 44 16 24 - - 0.0
23/08:46pm 0.6 -6.6 0.5 99 0.0 W 28 50 15 27 - - 0.0
23/08:30pm 0.5 -6.7 0.4 99 0.0 W 28 44 15 24 - - 0.0
23/08:07pm 0.6 -6.6 0.5 99 0.0 W 28 46 15 25 - - 0.0
23/08:00pm 0.7 -6.5 0.6 99 0.0 W 28 41 15 22 - - 0.0
23/07:49pm 0.7 -6.5 0.6 99 0.0 W 28 46 15 25 - - 0.0
23/07:30pm 0.8 -6.4 0.7 99 0.0 W 28 39 15 21 - - 0.0
23/07:00pm 0.6 -7.4 0.5 99 0.0 W 32 44 17 24 - - 0.0
23/06:30pm 0.7 -7.8 0.6 99 0.0 W 35 48 19 26 - - 0.0
23/06:00pm 0.8 -7.7 0.7 99 0.0 W 35 54 19 29 - - 0.0
23/05:34pm 0.9 -6.7 0.8 99 0.0 W 30 50 16 27 - - 0.0
23/05:30pm 0.9 -6.7 0.8 99 0.0 W 30 43 16 23 - - 0.0
23/05:00pm 1.1 -6.1 1.0 99 0.0 WNW 28 48 15 26 - - 0.0
23/04:54pm 1.2 -5.9 1.1 99 0.0 W 28 48 15 26 - - 0.0
23/04:30pm 1.3 -5.4 1.2 99 0.0 WNW 26 43 14 23 - - 0.0
23/04:00pm 1.5 -6.0 1.2 98 0.1 WNW 30 43 16 23 - - 0.0
23/03:30pm 1.7 -5.5 0.8 94 0.4 WNW 28 41 15 22 - - 0.0
23/03:00pm 2.0 -4.1 0.7 91 0.5 W 22 35 12 19 - - 0.0
23/02:30pm 2.2 -5.0 0.6 89 0.7 WNW 28 39 15 21 - - 0.0
23/02:00pm 2.3 -4.7 -0.4 82 1.1 WNW 26 39 14 21 - - 0.0
23/01:30pm 3.1 -5.1 -1.3 73 1.8 W 32 46 17 25 - - 0.0
23/01:00pm 3.3 -5.3 -3.9 59 2.7 WNW 32 44 17 24 - - 0.0
23/12:52pm 3.3 -4.6 -4.9 55 3.0 WNW 28 46 15 25 - - 0.0
23/12:30pm 3.6 -4.5 -6.9 46 3.9 WNW 28 39 15 21 - - 0.0
23/12:20pm 3.7 -4.4 -7.1 45 4.0 WNW 28 46 15 25 - - 0.0
23/12:00pm 3.5 -4.7 -7.6 44 4.0 WNW 28 41 15 22 - - 0.0
23/11:30am 3.3 -5.4 -8.7 41 4.2 WNW 30 39 16 21 - - 0.0
23/11:00am 3.3 -4.9 -8.1 43 4.0 WNW 28 39 15 21 - - 0.0
23/10:30am 3.1 -4.5 -9.5 39 4.3 WNW 24 37 13 20 - - 0.0
23/10:00am 2.7 -4.8 -8.3 44 3.8 WNW 24 35 13 19 - - 0.0
23/09:30am 2.4 -4.6 -7.7 47 3.5 WNW 22 30 12 16 - - 0.0
23/09:00am 1.8 -4.8 -6.5 54 3.0 WNW 20 28 11 15 - - 0.0
23/08:30am 1.3 -4.7 -6.3 57 2.7 WNW 17 24 9 13 - - 0.0
23/08:00am 1.2 -4.7 -6.1 58 2.6 WNW 17 22 9 12 - - 0.0
23/07:30am 0.2 -5.3 -5.0 68 1.8 NW 15 20 8 11 - - 0.0
23/07:00am -0.1 -4.8 -5.1 69 1.8 NW 11 13 6 7 - - 0.0
23/06:30am 0.1 -5.4 -5.3 67 1.9 WNW 15 17 8 9 - - 0.0
23/06:00am 0.3 -5.2 -5.3 66 2.0 NW 15 20 8 11 - - 0.0
23/05:30am 0.6 -4.9 -5.6 63 2.2 NW 15 20 8 11 - - 0.0
23/05:00am 0.4 -5.0 -4.6 69 1.8 NW 15 19 8 10 - - 0.0
23/04:30am 0.2 -4.3 -3.5 76 1.4 NNW 11 15 6 8 - - 0.0
23/04:00am 0.3 -4.2 -3.4 76 1.4 N 11 13 6 7 - - 0.0
23/03:30am 0.4 -4.2 -3.9 73 1.6 N 11 11 6 6 - - 0.0
23/03:00am 0.5 -3.8 -4.9 67 1.9 NW 9 13 5 7 - - 0.0
23/02:30am 0.0 -4.0 -1.9 87 0.7 NNW 9 9 5 5 - - 0.0
23/02:00am 0.2 -3.9 -2.8 80 1.1 NW 9 9 5 5 - - 0.0
23/01:30am 0.5 -3.2 -3.1 77 1.4 NNW 7 9 4 5 - - 0.0
23/01:00am 0.5 -3.6 -2.7 79 1.2 NNW 9 13 5 7 - - 0.0
23/12:30am 0.5 -3.4 -1.6 86 0.8 NNW 9 11 5 6 - - 0.0
23/12:00am 0.8 -3.3 -2.9 76 1.4 N 9 13 5 7 - - 0.0
 
Date/Time
EST
Temp
°C
App
Temp
°C
Dew
Point
°C
Rel
Hum
%
Delta-T
°C
Wind Press
QNH
hPa
Press
MSL
hPa
Rain since
9am
mm
Dir  Spd
km/h
Gust
km/h
Spd
kts
Gust
kts
22/11:30pm 1.0 -3.2 -4.2 68 1.9 N 9 11 5 6 - - 0.0
22/11:00pm 0.6 -3.0 -2.1 82 1.1 NNE 7 9 4 5 - - 0.0
22/10:30pm 0.7 -3.1 -0.4 92 0.4 N 9 11 5 6 - - 0.0
22/10:00pm 0.5 -3.1 0.4 99 0.0 N 9 13 5 7 - - 0.0
22/09:30pm 0.4 -1.9 0.3 99 0.0 NNE 2 6 1 3 - - 0.0
22/09:00pm 0.5 -2.2 0.4 99 0.0 NNE 4 7 2 4 - - 0.0
22/08:30pm 0.3 -3.0 0.2 99 0.0 E 7 9 4 5 - - 0.0
22/08:00pm 0.9 -1.0 0.8 99 0.0 CALM 0 2 0 1 - - 0.0
22/07:30pm 1.6 -1.3 1.5 99 0.0 NW 6 9 3 5 - - 0.0
22/07:00pm 1.4 -1.7 1.3 99 0.0 NW 7 11 4 6 - - 0.0
22/06:30pm 1.6 -0.9 1.5 99 0.0 WSW 4 7 2 4 - - 0.0
22/06:00pm 1.9 -0.6 1.8 99 0.0 WNW 4 7 2 4 - - 0.0
22/05:30pm 2.4 -1.3 2.3 99 0.0 WNW 11 15 6 8 - - 0.0
22/05:00pm 2.7 -0.3 2.1 96 0.3 NW 7 11 4 6 - - 0.0
22/04:30pm 3.3 0.3 2.1 92 0.5 NNW 7 11 4 6 - - 0.0
22/04:00pm 3.7 0.9 1.9 88 0.8 NW 6 11 3 6 - - 0.0
22/03:30pm 3.6 0.6 1.8 88 0.8 N 7 9 4 5 - - 0.0
22/03:00pm 3.3 0.3 1.8 90 0.6 W 7 9 4 5 - - 0.0
22/02:30pm 3.9 0.5 1.6 85 1.0 WNW 9 17 5 9 - - 0.0
22/02:00pm 3.9 -0.4 1.1 82 1.2 WNW 13 17 7 9 - - 0.0
22/01:30pm 4.3 -1.2 0.8 78 1.5 WNW 19 26 10 14 - - 0.0
22/01:00pm 4.8 0.6 1.5 79 1.4 WNW 13 17 7 9 - - 0.0
22/12:30pm 4.3 -0.3 1.7 83 1.1 NW 15 20 8 11 - - 0.0
22/12:00pm 4.8 0.5 0.9 76 1.7 NW 13 19 7 10 - - 0.0
22/11:30am 5.0 0.6 0.6 73 1.9 NW 13 20 7 11 - - 0.0
22/11:00am 5.0 0.2 0.4 72 2.0 NW 15 20 8 11 - - 0.0
22/10:30am 5.2 0.8 0.4 71 2.0 NNW 13 17 7 9 - - 0.0
22/10:00am 4.2 -0.5 0.7 78 1.5 NNW 15 20 8 11 - - 0.0
22/09:30am 3.6 -1.5 0.5 80 1.3 N 17 20 9 11 - - 0.0
22/09:00am 3.1 -1.7 0.2 81 1.2 N 15 20 8 11 - - 0.0
22/08:30am 2.6 -1.9 -0.3 81 1.2 N 13 20 7 11 - - 0.0
22/08:00am 1.8 -2.4 -1.1 81 1.1 NW 11 15 6 8 - - 0.0
22/07:30am 1.4 -2.8 -1.2 83 1.0 NW 11 13 6 7 - - 0.0
22/07:00am 1.3 -3.0 -1.4 82 1.1 NW 11 13 6 7 - - 0.0
22/06:30am 1.5 -2.8 -1.4 81 1.1 NW 11 13 6 7 - - 0.0
22/06:00am 1.6 -2.3 -1.3 81 1.1 NW 9 11 5 6 - - 0.0
22/05:30am 1.5 -2.4 -1.4 81 1.1 NW 9 11 5 6 - - 0.0
22/05:00am 1.8 -1.7 -1.4 79 1.3 NW 7 9 4 5 - - 0.0
22/04:30am 2.1 -1.4 -1.3 78 1.3 NW 7 9 4 5 - - 0.0
22/04:00am 2.2 -1.6 -1.1 79 1.3 N 9 9 5 5 - - 0.0
22/03:30am 2.2 -1.6 -1.1 79 1.3 N 9 11 5 6 - - 0.0
22/03:00am 2.2 -2.0 -0.9 80 1.2 N 11 13 6 7 - - 0.0
22/02:30am 2.2 -2.0 -0.9 80 1.2 NNE 11 15 6 8 - - 0.0
22/02:00am 1.9 -2.0 -1.5 78 1.3 NNE 9 13 5 7 - - 0.0
22/01:30am 2.6 -1.7 -1.7 73 1.7 NNE 11 15 6 8 - - 0.0
22/01:00am 1.9 -2.1 -2.1 75 1.5 NE 9 13 5 7 - - 0.0
22/12:30am 2.3 -2.1 -2.4 71 1.8 NNE 11 13 6 7 - - 0.0
22/12:00am 2.7 -2.1 -2.2 70 1.9 NNE 13 17 7 9 - - 0.0
 
Date/Time
EST
Temp
°C
App
Temp
°C
Dew
Point
°C
Rel
Hum
%
Delta-T
°C
Wind Press
QNH
hPa
Press
MSL
hPa
Rain since
9am
mm
Dir  Spd
km/h
Gust
km/h
Spd
kts
Gust
kts
21/11:30pm 2.7 -2.0 -2.0 71 1.8 NE 13 15 7 8 - - 0.0
21/11:00pm 2.6 -2.8 -1.0 77 1.4 ENE 17 20 9 11 - - 0.0
21/10:30pm 2.3 -2.6 -0.3 83 1.1 ENE 15 20 8 11 - - 0.0
21/10:00pm 2.3 -3.0 -0.4 82 1.1 ENE 17 20 9 11 - - 0.0
21/09:30pm 2.4 -2.9 -0.7 80 1.2 E 17 22 9 12 - - 0.0
21/09:00pm 2.8 -2.9 -0.8 77 1.5 E 19 24 10 13 - - 0.0

Latest Capital City Observations: Canberra | Sydney | Melbourne | Brisbane | Adelaide | Perth | Hobart | Darwin

Other Formats:

Comma delimited format used in spreadsheet applications
http://www.bom.gov.au/fwo/IDN60903/IDN60903.95916.axf

JavaScript Object Notation format (JSON) in row-major order
http://www.bom.gov.au/fwo/IDN60903/IDN60903.95916.json